createdAt,value
2022-08-25T06:43:23.099Z,5.63
2022-08-25T06:46:36.463Z,6.17
2022-08-25T06:49:48.173Z,6.03
2022-08-25T06:52:52.465Z,6.03
2022-08-25T06:56:03.345Z,6.32
2022-08-25T06:59:11.218Z,6.43
2022-08-25T07:02:14.808Z,5.90
2022-08-25T07:05:54.616Z,6.05
2022-08-25T07:09:47.951Z,6.07
2022-08-25T07:13:05.499Z,6.13
2022-08-25T07:16:15.524Z,5.83
2022-08-25T07:23:37.427Z,5.63
2022-08-25T07:31:57.601Z,5.93
2022-08-25T07:35:19.117Z,6.37
2022-08-25T07:38:51.370Z,6.30
2022-08-25T07:45:46.892Z,6.50
2022-08-25T07:48:54.568Z,6.78
2022-08-25T07:53:01.860Z,6.73
2022-08-25T07:56:25.621Z,7.13
2022-08-25T07:59:29.269Z,7.60
2022-08-25T08:02:35.664Z,7.28
2022-08-25T08:05:57.527Z,6.60
2022-08-25T08:09:10.102Z,6.97
2022-08-25T08:12:41.256Z,6.77
2022-08-25T08:16:03.318Z,6.85
2022-08-25T08:19:06.907Z,6.72
2022-08-25T08:22:45.566Z,7.25
2022-08-25T08:25:49.254Z,6.90
2022-08-25T08:29:05.740Z,7.43
2022-08-25T08:32:32.562Z,7.10
2022-08-25T08:36:36.376Z,7.25
2022-08-25T08:39:52.983Z,7.22
2022-08-25T08:43:25.086Z,6.70
2022-08-25T08:47:02.239Z,7.00
2022-08-25T08:54:00.358Z,6.72
2022-08-25T09:01:05.401Z,7.17
2022-08-25T09:04:14.571Z,7.10
2022-08-25T09:07:37.971Z,7.07
2022-08-25T09:11:24.415Z,7.18
2022-08-25T09:15:20.810Z,7.38
2022-08-25T09:18:40.364Z,7.53
2022-08-25T09:21:52.013Z,7.93
2022-08-25T09:25:08.375Z,8.63
2022-08-25T09:28:22.323Z,8.82
2022-08-25T09:31:35.613Z,8.70
2022-08-25T09:34:39.211Z,9.23
2022-08-25T09:41:11.542Z,9.38
2022-08-25T09:44:24.189Z,9.05
2022-08-25T09:47:32.842Z,8.80
2022-08-25T09:50:42.806Z,9.13
2022-08-25T09:53:54.867Z,22.53
2022-08-25T09:57:02.168Z,39.78
2022-08-25T10:00:14.492Z,24.38
2022-08-25T10:03:24.793Z,16.67
2022-08-25T10:06:37.680Z,16.07
2022-08-25T10:09:42.395Z,13.50
2022-08-25T10:12:51.258Z,11.07
2022-08-25T10:16:20.081Z,10.25
2022-08-25T10:19:30.421Z,9.77
2022-08-25T10:22:34.503Z,9.60
2022-08-25T10:25:59.010Z,9.90
2022-08-25T10:29:13.468Z,9.18
2022-08-25T10:32:26.534Z,9.82
2022-08-25T10:35:48.596Z,11.70
2022-08-25T10:39:31.772Z,10.80
2022-08-25T10:43:30.325Z,8.90
2022-08-25T10:50:48.996Z,9.65
2022-08-25T10:54:09.430Z,9.68
2022-08-25T10:57:23.508Z,9.17
2022-08-25T11:00:33.350Z,8.93
2022-08-25T11:03:52.245Z,8.80
2022-08-25T11:07:01.497Z,8.45
2022-08-25T11:10:13.847Z,8.73
2022-08-25T11:13:47.259Z,8.50
2022-08-25T11:17:02.472Z,7.90
2022-08-25T11:20:26.503Z,8.25
2022-08-25T11:28:29.281Z,7.88
2022-08-25T11:32:35.713Z,7.83
2022-08-25T11:36:02.033Z,8.00
2022-08-25T11:39:19.485Z,8.30
2022-08-25T11:42:53.286Z,8.40
2022-08-25T11:46:28.202Z,7.85
2022-08-25T11:49:52.713Z,7.00
2022-08-25T11:52:58.080Z,7.47
2022-08-25T11:56:23.474Z,7.45
2022-08-25T12:00:35.208Z,8.27
2022-08-25T12:04:15.186Z,8.18
2022-08-25T12:07:22.854Z,7.47
2022-08-25T12:11:08.471Z,7.20
2022-08-25T12:14:38.125Z,7.75
2022-08-25T12:17:42.121Z,7.88
2022-08-25T12:21:26.439Z,8.10
2022-08-25T12:29:10.101Z,7.47
2022-08-25T12:32:36.171Z,8.20
2022-08-25T12:35:50.727Z,7.75
2022-08-25T12:38:54.482Z,7.95
2022-08-25T12:45:39.676Z,7.97
2022-08-25T12:48:56.968Z,7.07
2022-08-25T12:52:03.190Z,7.00
2022-08-25T12:55:11.860Z,7.63
2022-08-25T12:58:18.096Z,7.23
2022-08-25T13:01:35.209Z,7.30
2022-08-25T13:05:15.487Z,8.02
2022-08-25T13:08:37.218Z,7.30
2022-08-25T13:11:46.508Z,7.50
2022-08-25T13:14:55.640Z,7.30
2022-08-25T13:21:35.147Z,7.10
2022-08-25T13:24:43.750Z,7.30
2022-08-25T13:27:54.059Z,7.38
2022-08-25T13:31:01.332Z,7.10
2022-08-25T13:34:07.853Z,7.03
2022-08-25T13:37:29.684Z,7.78
2022-08-25T13:40:36.674Z,7.25
2022-08-25T13:43:41.503Z,6.82
2022-08-25T13:46:46.981Z,7.90
2022-08-25T13:49:50.427Z,7.30
2022-08-25T13:52:59.977Z,7.53
2022-08-25T13:56:04.837Z,7.47
2022-08-25T13:59:21.580Z,7.07
2022-08-25T14:02:44.138Z,6.93
2022-08-25T14:05:47.820Z,7.00
2022-08-25T14:09:16.150Z,7.40
2022-08-25T14:12:33.199Z,7.75
2022-08-25T14:15:38.389Z,7.50
2022-08-25T14:18:48.548Z,7.27
2022-08-25T14:21:56.628Z,6.57
2022-08-25T14:25:01.783Z,8.10
2022-08-25T14:28:08.462Z,7.15
2022-08-25T14:31:16.676Z,7.25
2022-08-25T14:34:23.990Z,7.07
2022-08-25T14:37:27.611Z,7.38
2022-08-25T14:40:34.491Z,7.47
2022-08-25T14:43:38.430Z,7.35
2022-08-25T14:46:46.478Z,8.07
2022-08-25T14:49:50.727Z,7.27
2022-08-25T14:52:54.266Z,7.10
2022-08-25T14:56:08.637Z,7.30
2022-08-25T14:59:14.158Z,7.00
2022-08-25T15:02:20.353Z,7.03
2022-08-25T15:05:28.437Z,7.17
2022-08-25T15:08:49.857Z,7.82
2022-08-25T15:11:57.449Z,8.07
2022-08-25T15:15:01.687Z,7.35
2022-08-25T15:18:05.703Z,7.88
2022-08-25T15:21:09.793Z,7.43
2022-08-25T15:24:17.713Z,7.43
2022-08-25T15:27:23.702Z,7.68
2022-08-25T15:30:30.852Z,7.60
2022-08-25T15:33:34.828Z,7.68
2022-08-25T15:36:38.844Z,7.43
2022-08-25T15:39:44.622Z,7.72
2022-08-25T15:42:49.657Z,7.75
2022-08-25T15:45:53.210Z,7.38
2022-08-25T15:48:57.204Z,7.15
2022-08-25T15:52:01.239Z,7.37
2022-08-25T15:55:05.887Z,7.38
2022-08-25T15:58:11.455Z,7.50
2022-08-25T16:01:16.636Z,7.93
2022-08-25T16:04:23.471Z,7.90
2022-08-25T16:07:27.005Z,7.43
2022-08-25T16:10:34.995Z,7.22
2022-08-25T16:13:42.166Z,7.30
2022-08-25T16:16:45.820Z,7.32
2022-08-25T16:19:49.427Z,7.18
2022-08-25T16:22:53.916Z,7.47
2022-08-25T16:25:57.906Z,6.82
2022-08-25T16:29:03.581Z,7.00
2022-08-25T16:32:11.107Z,6.97
2022-08-25T16:35:15.210Z,7.03
2022-08-25T16:38:19.004Z,7.00
2022-08-25T16:41:25.416Z,6.32
2022-08-25T16:44:30.351Z,6.93
2022-08-25T16:47:38.045Z,6.90
2022-08-25T16:50:41.696Z,7.45
2022-08-25T16:54:02.718Z,6.67
2022-08-25T16:57:06.421Z,7.03
2022-08-25T17:00:15.550Z,6.75
2022-08-25T17:03:19.015Z,6.63
2022-08-25T17:06:24.462Z,6.68
2022-08-25T17:09:27.983Z,6.60
2022-08-25T17:12:32.686Z,6.50
2022-08-25T17:15:40.836Z,6.28
2022-08-25T17:18:47.758Z,7.13
2022-08-25T17:21:52.459Z,6.53
2022-08-25T17:25:00.661Z,6.93
2022-08-25T17:28:05.969Z,6.32
2022-08-25T17:31:12.930Z,7.20
2022-08-25T17:34:23.245Z,6.47
2022-08-25T17:37:27.515Z,6.53
2022-08-25T17:40:31.915Z,6.97
2022-08-25T17:43:38.549Z,7.13
2022-08-25T17:46:47.630Z,6.78
2022-08-25T17:49:51.479Z,6.97
2022-08-25T17:52:55.250Z,6.70
2022-08-25T17:56:01.548Z,6.40
2022-08-25T17:59:05.059Z,6.90
2022-08-25T18:02:10.097Z,6.70
2022-08-25T18:05:16.316Z,6.72
2022-08-25T18:08:19.855Z,6.18
2022-08-25T18:11:35.612Z,6.80
2022-08-25T18:14:40.049Z,6.78
2022-08-25T18:17:45.207Z,7.10
2022-08-25T18:20:49.405Z,7.28
2022-08-25T18:23:53.499Z,6.72
2022-08-25T18:26:56.944Z,7.00
2022-08-25T18:30:00.532Z,6.78
2022-08-25T18:33:06.267Z,7.40
2022-08-25T18:36:10.346Z,6.82
2022-08-25T18:39:34.686Z,6.65
2022-08-25T18:42:38.585Z,7.17
2022-08-25T18:45:44.243Z,6.70
2022-08-25T18:48:49.315Z,6.55
2022-08-25T18:51:56.575Z,6.97
2022-08-25T18:55:00.414Z,6.70
2022-08-25T18:58:05.837Z,6.90
2022-08-25T19:01:13.609Z,6.85
2022-08-25T19:04:18.539Z,6.88
2022-08-25T19:07:22.009Z,6.47
2022-08-25T19:10:25.772Z,7.40
2022-08-25T19:13:29.310Z,7.43
2022-08-25T19:16:36.941Z,6.63
2022-08-25T19:19:41.957Z,7.13
2022-08-25T19:22:45.587Z,6.82
2022-08-25T19:25:49.124Z,7.10
2022-08-25T19:28:53.887Z,6.50
2022-08-25T19:31:57.845Z,6.60
2022-08-25T19:35:08.115Z,7.40
2022-08-25T19:38:33.681Z,7.20
2022-08-25T19:41:37.886Z,6.90
2022-08-25T19:44:42.020Z,6.87
2022-08-25T19:47:45.810Z,6.82
2022-08-25T19:50:50.637Z,6.65
2022-08-25T19:54:01.574Z,7.40
2022-08-25T19:57:11.046Z,6.63
2022-08-25T20:00:17.743Z,6.90
2022-08-25T20:03:21.650Z,6.85
2022-08-25T20:06:27.633Z,7.20
2022-08-25T20:09:38.992Z,7.07
2022-08-25T20:12:45.293Z,7.57
2022-08-25T20:15:49.007Z,6.73
2022-08-25T20:18:54.058Z,7.50
2022-08-25T20:21:59.045Z,7.22
2022-08-25T20:25:13.115Z,7.07
2022-08-25T20:28:19.097Z,7.38
2022-08-25T20:31:22.936Z,7.17
2022-08-25T20:34:28.553Z,7.70
2022-08-25T20:37:33.774Z,7.80
2022-08-25T20:40:39.691Z,7.40
2022-08-25T20:43:44.189Z,7.15
2022-08-25T20:46:48.201Z,7.67
2022-08-25T20:49:55.051Z,7.05
2022-08-25T20:52:59.881Z,6.88
2022-08-25T20:56:08.085Z,7.63
2022-08-25T20:59:11.828Z,6.57
2022-08-25T21:02:16.463Z,7.17
2022-08-25T21:05:20.229Z,7.88
2022-08-25T21:08:25.448Z,7.60
2022-08-25T21:11:30.253Z,7.28
2022-08-25T21:14:35.344Z,7.55
2022-08-25T21:17:40.709Z,6.87
2022-08-25T21:20:44.172Z,7.38
2022-08-25T21:23:51.371Z,6.85
2022-08-25T21:26:57.040Z,7.18
2022-08-25T21:30:00.708Z,7.88
2022-08-25T21:33:04.287Z,6.97
2022-08-25T21:36:10.129Z,7.18
2022-08-25T21:39:15.505Z,6.97
2022-08-25T21:42:19.862Z,7.95
2022-08-25T21:45:23.354Z,7.45
2022-08-25T21:48:27.211Z,7.40
2022-08-25T21:51:32.354Z,7.13
2022-08-25T21:54:55.660Z,7.28
2022-08-25T21:57:59.956Z,7.10
2022-08-25T22:01:06.987Z,7.43
2022-08-25T22:04:15.713Z,7.60
2022-08-25T22:07:19.333Z,7.30
2022-08-25T22:10:26.466Z,7.50
2022-08-25T22:13:30.461Z,7.60
2022-08-25T22:16:35.088Z,7.43
2022-08-25T22:19:38.735Z,7.70
2022-08-25T22:22:42.378Z,7.38
2022-08-25T22:25:47.683Z,7.57
2022-08-25T22:28:51.510Z,7.90
2022-08-25T22:31:59.295Z,7.32
2022-08-25T22:35:04.824Z,7.87
2022-08-25T22:38:12.227Z,7.93
2022-08-25T22:41:19.112Z,7.60
2022-08-25T22:44:25.525Z,7.20
2022-08-25T22:47:29.061Z,7.28
2022-08-25T22:50:35.426Z,7.17
2022-08-25T22:53:40.686Z,7.45
2022-08-25T22:56:45.843Z,7.25
2022-08-25T22:59:49.344Z,7.20
2022-08-25T23:02:53.359Z,7.15
2022-08-25T23:05:57.591Z,7.20
2022-08-25T23:09:01.784Z,7.47
2022-08-25T23:12:07.232Z,6.68
2022-08-25T23:15:11.646Z,6.95
2022-08-25T23:18:15.946Z,7.63
2022-08-25T23:21:41.106Z,7.17
2022-08-25T23:24:46.816Z,6.95
2022-08-25T23:27:52.129Z,6.78
2022-08-25T23:30:59.402Z,7.60
2022-08-25T23:34:03.021Z,7.60
2022-08-25T23:37:07.806Z,6.93
2022-08-25T23:40:12.651Z,7.15
2022-08-25T23:43:24.281Z,6.75
2022-08-25T23:46:29.082Z,6.90
2022-08-25T23:49:32.711Z,6.88
2022-08-25T23:52:37.277Z,6.30
2022-08-25T23:55:51.133Z,7.45
2022-08-25T23:58:57.597Z,6.95
